sensor_id;sensor_type;location;lat;lon;timestamp;temperature;humidity
17405;DHT22;8820;54.604;18.226;2022-10-18T00:00:40;18.40;98.40
17405;DHT22;8820;54.604;18.226;2022-10-18T00:03:11;18.40;98.50
17405;DHT22;8820;54.604;18.226;2022-10-18T00:06:27;18.30;98.50
17405;DHT22;8820;54.604;18.226;2022-10-18T00:09:10;18.30;98.50
17405;DHT22;8820;54.604;18.226;2022-10-18T00:11:38;18.20;98.50
17405;DHT22;8820;54.604;18.226;2022-10-18T00:14:07;18.20;98.60
17405;DHT22;8820;54.604;18.226;2022-10-18T00:16:58;18.10;98.80
17405;DHT22;8820;54.604;18.226;2022-10-18T00:19:26;18.20;98.80
17405;DHT22;8820;54.604;18.226;2022-10-18T00:21:56;18.10;98.70
17405;DHT22;8820;54.604;18.226;2022-10-18T00:24:24;18.10;98.70
17405;DHT22;8820;54.604;18.226;2022-10-18T00:26:53;18.10;98.70
17405;DHT22;8820;54.604;18.226;2022-10-18T00:29:21;18.10;98.70
17405;DHT22;8820;54.604;18.226;2022-10-18T00:32:17;18.10;98.70
17405;DHT22;8820;54.604;18.226;2022-10-18T00:34:46;18.10;98.70
17405;DHT22;8820;54.604;18.226;2022-10-18T00:37:14;18.10;98.60
17405;DHT22;8820;54.604;18.226;2022-10-18T00:39:43;18.00;98.50
17405;DHT22;8820;54.604;18.226;2022-10-18T00:42:15;18.00;98.60
17405;DHT22;8820;54.604;18.226;2022-10-18T00:45:12;18.00;98.60
17405;DHT22;8820;54.604;18.226;2022-10-18T00:47:45;18.00;98.50
17405;DHT22;8820;54.604;18.226;2022-10-18T00:50:16;18.00;98.50
17405;DHT22;8820;54.604;18.226;2022-10-18T00:52:50;18.00;98.50
17405;DHT22;8820;54.604;18.226;2022-10-18T00:55:19;18.00;98.60
17405;DHT22;8820;54.604;18.226;2022-10-18T00:57:48;17.90;98.60
17405;DHT22;8820;54.604;18.226;2022-10-18T01:00:18;17.90;98.50
17405;DHT22;8820;54.604;18.226;2022-10-18T01:03:08;17.90;98.50
17405;DHT22;8820;54.604;18.226;2022-10-18T01:05:39;17.90;98.60
17405;DHT22;8820;54.604;18.226;2022-10-18T01:08:27;17.90;98.60
17405;DHT22;8820;54.604;18.226;2022-10-18T01:11:10;17.90;98.70
17405;DHT22;8820;54.604;18.226;2022-10-18T01:13:50;17.80;98.80
17405;DHT22;8820;54.604;18.226;2022-10-18T01:16:28;17.70;99.10
17405;DHT22;8820;54.604;18.226;2022-10-18T01:19:15;17.60;99.40
17405;DHT22;8820;54.604;18.226;2022-10-18T01:21:52;17.60;99.50
17405;DHT22;8820;54.604;18.226;2022-10-18T01:24:38;17.50;99.60
17405;DHT22;8820;54.604;18.226;2022-10-18T01:27:39;17.50;99.70
17405;DHT22;8820;54.604;18.226;2022-10-18T01:30:38;17.50;99.70
17405;DHT22;8820;54.604;18.226;2022-10-18T01:33:18;17.50;99.70
17405;DHT22;8820;54.604;18.226;2022-10-18T01:35:52;17.50;99.70
17405;DHT22;8820;54.604;18.226;2022-10-18T01:38:24;17.40;99.70
17405;DHT22;8820;54.604;18.226;2022-10-18T01:40:54;17.40;99.80
17405;DHT22;8820;54.604;18.226;2022-10-18T01:43:23;17.40;99.80
17405;DHT22;8820;54.604;18.226;2022-10-18T01:45:54;17.40;99.70
17405;DHT22;8820;54.604;18.226;2022-10-18T01:48:23;17.40;99.70
17405;DHT22;8820;54.604;18.226;2022-10-18T01:50:52;17.40;99.60
17405;DHT22;8820;54.604;18.226;2022-10-18T01:53:26;17.40;99.60
17405;DHT22;8820;54.604;18.226;2022-10-18T01:56:07;17.30;99.50
17405;DHT22;8820;54.604;18.226;2022-10-18T01:58:43;17.30;99.60
17405;DHT22;8820;54.604;18.226;2022-10-18T02:01:20;17.30;99.50
17405;DHT22;8820;54.604;18.226;2022-10-18T02:03:55;17.30;99.50
17405;DHT22;8820;54.604;18.226;2022-10-18T02:06:28;17.30;99.50
17405;DHT22;8820;54.604;18.226;2022-10-18T02:09:03;17.30;99.60
17405;DHT22;8820;54.604;18.226;2022-10-18T02:11:36;17.30;99.60
17405;DHT22;8820;54.604;18.226;2022-10-18T02:14:07;17.20;99.50
17405;DHT22;8820;54.604;18.226;2022-10-18T02:16:40;17.20;99.50
17405;DHT22;8820;54.604;18.226;2022-10-18T02:19:17;17.20;99.50
17405;DHT22;8820;54.604;18.226;2022-10-18T02:21:49;17.30;99.50
17405;DHT22;8820;54.604;18.226;2022-10-18T02:24:20;17.30;99.40
17405;DHT22;8820;54.604;18.226;2022-10-18T02:26:51;17.30;99.40
17405;DHT22;8820;54.604;18.226;2022-10-18T02:29:19;17.30;99.40
